Time;durP1;ratioP1;P1;durP2;ratioP2;P2;SDS_P1;SDS_P2;PMS_P1;PMS_P2;Temp;Humidity;BMP_temperature;BMP_pressure;BME280_temperature;BME280_humidity;BME280_pressure;Samples;Min_cycle;Max_cycle;Signal;HPM_P1;HPM_P2
2021/05/01 00:01:28;;;;;;;2.42;2.00;;;;;;;13.18;77.07;99190.52;1780659;79;21152;-51
2021/05/01 00:03:55;;;;;;;3.42;3.12;;;;;;;13.16;77.06;99186.56;1776453;79;21204;-51
2021/05/01 00:06:22;;;;;;;2.90;2.15;;;;;;;13.15;77.07;99183.48;1780908;79;21864;-51
2021/05/01 00:08:50;;;;;;;3.90;3.05;;;;;;;13.14;76.98;99187.63;1778555;79;21207;-51
2021/05/01 00:11:22;;;;;;;3.02;2.80;;;;;;;13.11;76.98;99182.39;1776680;79;21163;-51
2021/05/01 00:13:50;;;;;;;3.30;2.45;;;;;;;13.08;76.86;99181.27;1779453;79;21218;-51
2021/05/01 00:16:17;;;;;;;3.08;2.25;;;;;;;13.04;76.84;99175.67;1781281;79;21498;-50
2021/05/01 00:18:45;;;;;;;3.85;2.00;;;;;;;13.00;76.72;99180.91;1779756;79;21396;-52
2021/05/01 00:21:12;;;;;;;3.85;2.37;;;;;;;12.94;76.32;99178.12;1777633;79;21643;-51
2021/05/01 00:23:39;;;;;;;2.58;2.30;;;;;;;12.87;76.11;99179.50;1778342;79;21467;-51
2021/05/01 00:26:10;;;;;;;2.52;2.10;;;;;;;12.82;76.02;99183.88;1781750;79;21638;-51
2021/05/01 00:28:37;;;;;;;3.95;3.20;;;;;;;12.80;75.99;99188.98;1782074;79;21088;-51
2021/05/01 00:31:06;;;;;;;3.15;2.70;;;;;;;12.75;75.83;99192.00;1759797;79;21539;-50
2021/05/01 00:33:33;;;;;;;6.65;2.70;;;;;;;12.71;75.68;99190.45;1783529;78;21625;-51
2021/05/01 00:36:02;;;;;;;2.80;2.60;;;;;;;12.68;75.63;99191.13;1787511;78;21197;-51
2021/05/01 00:41:12;;;;;;;5.60;2.30;;;;;;;12.59;75.14;99199.86;1863832;75;22880;-50
2021/05/01 00:43:41;;;;;;;3.00;1.70;;;;;;;12.49;74.85;99200.94;1835674;76;21019;-51
2021/05/01 00:46:09;;;;;;;3.42;1.65;;;;;;;12.41;74.80;99197.87;1803690;78;21388;-50
2021/05/01 00:48:36;;;;;;;1.10;1.00;;;;;;;12.35;74.66;99218.48;1803330;77;21593;-50
2021/05/01 00:51:05;;;;;;;1.55;1.20;;;;;;;12.27;74.43;99218.10;1785099;78;21178;-51
2021/05/01 00:53:33;;;;;;;1.77;1.40;;;;;;;12.19;74.17;99214.55;1808033;77;21411;-52
2021/05/01 00:56:00;;;;;;;2.45;1.90;;;;;;;12.11;74.30;99218.20;1807600;78;21163;-52
2021/05/01 00:58:27;;;;;;;4.75;1.65;;;;;;;12.04;74.43;99216.38;1781457;79;21385;-51
2021/05/01 01:03:38;;;;;;;4.20;1.70;;;;;;;11.89;74.53;99216.48;1777659;78;21211;-51
2021/05/01 01:06:06;;;;;;;1.52;1.20;;;;;;;11.83;74.53;99219.53;1777745;78;21210;-51
2021/05/01 01:08:34;;;;;;;2.10;1.75;;;;;;;11.77;74.51;99208.66;1741270;79;21480;-51
2021/05/01 01:11:02;;;;;;;1.22;1.10;;;;;;;11.73;74.57;99216.05;1775899;78;21363;-51
2021/05/01 01:13:31;;;;;;;1.95;1.42;;;;;;;11.72;74.61;99213.44;1768264;79;21135;-50
2021/05/01 01:15:58;;;;;;;1.87;1.77;;;;;;;11.69;74.62;99217.66;1772707;79;21194;-51
2021/05/01 01:18:26;;;;;;;2.52;2.33;;;;;;;11.63;74.41;99223.44;1800923;78;21194;-51
2021/05/01 01:20:54;;;;;;;3.00;2.22;;;;;;;11.57;74.48;99227.34;1777411;78;21812;-51
2021/05/01 01:23:22;;;;;;;1.82;1.70;;;;;;;11.53;74.58;99230.34;1759553;78;22345;-49
2021/05/01 01:25:51;;;;;;;1.52;1.40;;;;;;;11.49;74.61;99229.64;1757765;78;22186;-51
2021/05/01 01:28:18;;;;;;;1.60;1.50;;;;;;;11.45;74.64;99231.28;1781046;79;22215;-51
2021/05/01 01:30:45;;;;;;;1.75;1.10;;;;;;;11.43;74.67;99238.58;1801120;78;21163;-51
2021/05/01 01:33:13;;;;;;;1.65;1.32;;;;;;;11.39;74.55;99235.22;1799510;78;21148;-52
2021/05/01 01:35:40;;;;;;;1.85;0.90;;;;;;;11.34;74.50;99241.34;1774992;79;21236;-50
2021/05/01 01:38:07;;;;;;;1.57;1.07;;;;;;;11.30;74.46;99240.67;1772511;79;21229;-50
2021/05/01 01:40:37;;;;;;;1.10;1.00;;;;;;;11.28;74.37;99247.11;1771569;79;21139;-50
2021/05/01 01:43:05;;;;;;;1.20;1.10;;;;;;;11.26;74.31;99257.09;1763908;79;21132;-51
2021/05/01 01:45:32;;;;;;;1.70;1.60;;;;;;;11.20;74.26;99256.98;1748522;80;21495;-51
2021/05/01 01:48:00;;;;;;;2.02;1.92;;;;;;;11.11;74.05;99254.83;1775141;79;21205;-50
2021/05/01 01:50:27;;;;;;;2.83;2.62;;;;;;;11.01;74.07;99256.31;1771814;79;21206;-51
2021/05/01 01:52:55;;;;;;;2.58;2.37;;;;;;;10.94;74.15;99254.94;1774909;79;21138;-51
2021/05/01 01:55:22;;;;;;;2.12;1.92;;;;;;;10.88;74.21;99256.64;1771178;79;21621;-51
2021/05/01 01:57:50;;;;;;;2.33;2.13;;;;;;;10.84;74.18;99259.97;1747421;80;21190;-51
2021/05/01 02:00:25;;;;;;;1.98;1.87;;;;;;;10.80;74.07;99265.63;1781264;78;22296;-51
2021/05/01 02:02:53;;;;;;;2.22;1.98;;;;;;;10.75;74.07;99274.43;1746972;80;21455;-49
2021/05/01 02:05:21;;;;;;;2.00;1.57;;;;;;;10.69;73.97;99277.47;1762211;79;21489;-51
2021/05/01 02:07:50;;;;;;;2.83;1.82;;;;;;;10.63;73.96;99276.84;1762690;79;21091;-50
2021/05/01 02:10:18;;;;;;;2.77;1.52;;;;;;;10.58;74.03;99283.45;1761878;79;21869;-51
2021/05/01 02:12:45;;;;;;;3.65;2.33;;;;;;;10.53;74.07;99282.84;1763496;79;21490;-51
2021/05/01 02:15:18;;;;;;;2.60;2.27;;;;;;;10.48;74.05;99280.87;1763190;79;21186;-50
2021/05/01 02:17:48;;;;;;;3.40;2.67;;;;;;;10.44;74.21;99283.36;1782821;78;21122;-50
2021/05/01 02:20:22;;;;;;;2.85;2.40;;;;;;;10.40;74.27;99292.05;1761624;79;21112;-50
2021/05/01 02:22:49;;;;;;;3.07;2.83;;;;;;;10.36;74.36;99290.50;1766846;79;21111;-50
2021/05/01 02:25:17;;;;;;;1.93;1.70;;;;;;;10.34;74.45;99295.56;1750317;80;21367;-51
2021/05/01 02:27:44;;;;;;;3.40;1.80;;;;;;;10.33;74.56;99294.70;1785853;78;20992;-50
2021/05/01 02:30:15;;;;;;;2.92;2.70;;;;;;;10.33;74.65;99298.73;1786991;78;21649;-51
2021/05/01 02:32:42;;;;;;;3.40;1.90;;;;;;;10.33;74.72;99296.52;1767588;79;21091;-51
2021/05/01 02:35:12;;;;;;;2.60;2.40;;;;;;;10.31;74.84;99299.76;1751472;80;21095;-49
2021/05/01 02:37:40;;;;;;;3.05;2.85;;;;;;;10.28;74.89;99298.60;1783099;78;22001;-49
2021/05/01 02:40:09;;;;;;;2.93;2.73;;;;;;;10.25;74.88;99296.94;1788825;78;21131;-49
2021/05/01 02:42:38;;;;;;;8.43;3.60;;;;;;;10.21;74.98;99303.41;1774354;80;21130;-50
2021/05/01 02:45:07;;;;;;;3.53;3.23;;;;;;;10.19;75.09;99301.31;1767340;79;21104;-51
2021/05/01 02:47:35;;;;;;;2.97;2.77;;;;;;;10.17;75.19;99297.35;1775679;80;21107;-51
2021/05/01 02:50:05;;;;;;;3.00;2.77;;;;;;;10.16;75.23;99299.61;1774406;80;22125;-50
2021/05/01 02:52:32;;;;;;;2.87;2.53;;;;;;;10.16;75.29;99302.77;1774882;80;21123;-50
2021/05/01 02:55:00;;;;;;;2.98;2.20;;;;;;;10.16;75.18;99312.19;1772723;78;21111;-51
2021/05/01 02:57:27;;;;;;;2.30;2.10;;;;;;;10.14;75.22;99312.27;1774312;80;21114;-49
2021/05/01 03:00:01;;;;;;;6.40;3.08;;;;;;;10.13;75.32;99309.65;1774300;80;21202;-51
2021/05/01 03:02:24;;;;;;;3.52;3.22;;;;;;;10.12;75.40;99303.40;1774632;80;21370;-51
2021/05/01 03:04:51;;;;;;;3.37;3.02;;;;;;;10.10;75.47;99313.39;1772905;80;21202;-50
2021/05/01 03:07:18;;;;;;;2.90;2.60;;;;;;;10.12;75.49;99322.73;1765691;79;21171;-50
2021/05/01 03:09:46;;;;;;;2.40;2.20;;;;;;;10.12;75.50;99322.73;1772815;80;21530;-50
2021/05/01 03:12:13;;;;;;;4.12;3.22;;;;;;;10.10;75.51;99328.66;1771992;80;21082;-51
2021/05/01 03:14:40;;;;;;;3.30;1.87;;;;;;;10.07;75.61;99331.50;1772015;80;21365;-50
2021/05/01 03:17:07;;;;;;;2.67;1.73;;;;;;;10.07;75.68;99338.22;1772165;80;21175;-51
2021/05/01 03:19:36;;;;;;;2.33;2.10;;;;;;;10.06;75.65;99329.75;1773932;80;21222;-50
2021/05/01 03:22:04;;;;;;;1.50;1.40;;;;;;;10.07;75.95;99335.53;1795456;78;21752;-49
2021/05/01 03:24:32;;;;;;;5.77;2.07;;;;;;;10.12;76.36;99341.55;1762718;79;21159;-51
2021/05/01 03:27:00;;;;;;;3.72;2.85;;;;;;;10.19;76.35;99343.00;1784107;79;22739;-50
2021/05/01 03:29:27;;;;;;;5.03;3.77;;;;;;;10.23;76.53;99349.46;1784599;79;21210;-50
2021/05/01 03:31:56;;;;;;;3.58;3.37;;;;;;;10.30;77.01;99349.12;1782012;79;21600;-51
2021/05/01 03:34:23;;;;;;;4.87;3.73;;;;;;;10.36;77.52;99351.52;1763252;79;21190;-50
2021/05/01 03:36:51;;;;;;;3.87;3.57;;;;;;;10.42;77.61;99352.05;1791791;78;21652;-51
2021/05/01 03:39:18;;;;;;;3.00;2.70;;;;;;;10.49;77.69;99350.76;1796477;78;21268;-51
2021/05/01 03:41:45;;;;;;;3.30;3.00;;;;;;;10.58;77.90;99352.95;1768791;79;21179;-49
2021/05/01 03:44:13;;;;;;;3.93;3.07;;;;;;;10.67;78.03;99350.70;1769465;80;21210;-50
2021/05/01 03:46:40;;;;;;;4.72;3.25;;;;;;;10.75;78.08;99349.80;1772084;79;21202;-50
2021/05/01 03:49:08;;;;;;;3.85;3.45;;;;;;;10.83;78.22;99351.12;1771865;79;21115;-50
2021/05/01 03:51:35;;;;;;;3.33;3.12;;;;;;;10.96;78.39;99358.05;1748751;80;22248;-50
2021/05/01 03:54:03;;;;;;;4.60;4.30;;;;;;;11.10;78.72;99366.22;1783568;78;21186;-49
2021/05/01 03:56:34;;;;;;;5.35;4.75;;;;;;;11.29;78.93;99364.22;1766790;79;21231;-49
2021/05/01 04:01:53;;;;;;;10.27;6.67;;;;;;;11.85;79.14;99365.45;1751621;79;23195;-50
2021/05/01 04:04:20;;;;;;;6.08;5.47;;;;;;;12.09;79.33;99365.33;1722301;80;20995;-51
2021/05/01 04:06:47;;;;;;;6.55;5.55;;;;;;;12.44;79.37;99375.31;1724074;80;21530;-51
2021/05/01 04:09:15;;;;;;;6.97;6.28;;;;;;;12.83;79.36;99376.50;1727924;80;21226;-50
2021/05/01 04:11:42;;;;;;;7.58;6.20;;;;;;;13.29;79.13;99376.27;1728225;80;21224;-51
2021/05/01 04:14:09;;;;;;;7.60;6.92;;;;;;;13.81;78.66;99379.09;1729852;80;21183;-50
2021/05/01 04:16:38;;;;;;;7.15;6.55;;;;;;;14.32;77.87;99377.38;1727084;80;21198;-50
2021/05/01 04:19:05;;;;;;;10.13;7.05;;;;;;;14.84;76.86;99370.53;1725217;80;23183;-50
2021/05/01 04:21:32;;;;;;;8.28;7.58;;;;;;;15.32;75.64;99377.42;1722201;80;21410;-51
2021/05/01 04:24:00;;;;;;;10.95;7.45;;;;;;;15.75;74.34;99371.06;1726067;80;21068;-51
2021/05/01 04:26:27;;;;;;;9.53;8.15;;;;;;;16.13;72.98;99370.38;1728423;80;21641;-51
2021/05/01 04:28:56;;;;;;;8.98;7.35;;;;;;;16.42;71.78;99369.46;1729178;80;21203;-51
2021/05/01 04:31:23;;;;;;;7.40;5.97;;;;;;;16.55;70.58;99369.37;1723830;80;22360;-50
2021/05/01 04:33:51;;;;;;;8.15;6.72;;;;;;;16.64;69.70;99373.63;1725700;80;21191;-51
2021/05/01 04:36:18;;;;;;;6.90;6.40;;;;;;;16.71;69.16;99368.57;1724869;80;21610;-51
2021/05/01 04:38:47;;;;;;;9.18;7.35;;;;;;;16.69;68.77;99374.61;1729034;80;21182;-51
2021/05/01 04:41:15;;;;;;;11.08;7.53;;;;;;;16.59;68.61;99373.08;1726354;80;21187;-51
2021/05/01 04:43:44;;;;;;;8.15;7.45;;;;;;;16.48;68.54;99377.16;1707002;82;21900;-51
2021/05/01 04:46:14;;;;;;;8.55;7.87;;;;;;;16.36;68.64;99384.02;1710591;82;21551;-52
2021/05/01 04:48:41;;;;;;;9.03;8.35;;;;;;;16.11;69.02;99370.12;1655851;85;21186;-51
2021/05/01 04:51:09;;;;;;;9.25;6.85;;;;;;;16.05;69.57;99374.18;1679941;83;21182;-50
2021/05/01 04:53:36;;;;;;;8.90;7.17;;;;;;;16.05;69.57;99374.18;1669459;84;21559;-51
2021/05/01 04:56:04;;;;;;;8.05;7.25;;;;;;;15.99;69.76;99377.86;1667845;84;21195;-50
2021/05/01 04:58:31;;;;;;;7.87;7.20;;;;;;;15.95;70.08;99374.50;1670895;84;21225;-51
2021/05/01 05:00:59;;;;;;;8.60;7.17;;;;;;;15.96;70.21;99374.02;1664901;84;21195;-51
2021/05/01 05:03:26;;;;;;;7.10;6.50;;;;;;;15.93;70.22;99371.03;1667555;83;21219;-51
2021/05/01 05:05:54;;;;;;;8.25;7.65;;;;;;;15.92;70.28;99378.80;1668506;83;21269;-52
2021/05/01 05:08:22;;;;;;;7.42;6.83;;;;;;;15.93;69.94;99370.16;1656936;84;21383;-53
2021/05/01 05:10:49;;;;;;;9.55;8.38;;;;;;;15.93;69.94;99370.16;1667754;83;21195;-52
2021/05/01 05:13:26;;;;;;;9.93;9.03;;;;;;;15.93;70.23;99370.16;1639054;85;21933;-52
2021/05/01 05:15:54;;;;;;;7.58;6.85;;;;;;;15.93;70.16;99380.53;1659687;84;21199;-53
2021/05/01 05:18:23;;;;;;;7.00;6.37;;;;;;;15.94;70.23;99380.05;1637406;85;21185;-52
2021/05/01 05:20:50;;;;;;;7.03;6.22;;;;;;;15.95;70.16;99377.70;1657370;84;21694;-52
2021/05/01 05:23:18;;;;;;;7.03;6.55;;;;;;;15.97;70.27;99379.82;1649156;85;21218;-52
2021/05/01 05:25:45;;;;;;;7.53;6.90;;;;;;;16.00;70.10;99370.06;1660577;84;21231;-52
2021/05/01 05:28:12;;;;;;;7.30;6.60;;;;;;;16.04;70.21;99375.16;1660301;84;21287;-52
2021/05/01 05:30:40;;;;;;;9.18;7.12;;;;;;;16.08;69.96;99379.35;1660790;84;21194;-52
2021/05/01 05:33:08;;;;;;;9.63;7.15;;;;;;;16.14;69.96;99371.25;1661788;84;21204;-53
2021/05/01 05:35:35;;;;;;;8.43;7.78;;;;;;;16.17;69.46;99370.50;1660904;84;21749;-53
2021/05/01 05:38:02;;;;;;;7.70;6.90;;;;;;;16.19;69.21;99371.26;1664009;84;21126;-53
2021/05/01 05:40:31;;;;;;;7.40;6.70;;;;;;;16.23;69.41;99362.39;1657024;84;21439;-52
2021/05/01 05:42:59;;;;;;;6.85;6.25;;;;;;;16.29;69.18;99372.77;1661783;84;20997;-52
2021/05/01 05:45:30;;;;;;;6.95;6.37;;;;;;;16.37;69.12;99378.97;1660065;84;21774;-53
2021/05/01 05:47:56;;;;;;;9.23;7.47;;;;;;;16.44;69.29;99381.08;1658530;84;21710;-52
2021/05/01 05:50:24;;;;;;;9.35;8.53;;;;;;;16.53;69.12;99383.57;1656175;84;21227;-52
2021/05/01 05:52:53;;;;;;;7.28;6.67;;;;;;;16.59;69.04;99386.66;1658578;84;21139;-52
2021/05/01 05:55:21;;;;;;;7.83;6.87;;;;;;;16.64;68.96;99379.06;1657584;84;21111;-52
2021/05/01 05:57:53;;;;;;;8.05;7.35;;;;;;;16.68;68.62;99379.67;1663755;84;21179;-53
2021/05/01 06:00:22;;;;;;;7.10;6.53;;;;;;;16.73;68.86;99377.97;1659517;84;21222;-52
2021/05/01 06:02:51;;;;;;;7.90;7.20;;;;;;;16.77;68.51;99380.80;1654180;84;21223;-52
2021/05/01 06:05:28;;;;;;;7.15;6.55;;;;;;;16.80;68.42;99381.43;1653660;85;21156;-52
2021/05/01 06:08:03;;;;;;;8.88;8.08;;;;;;;16.86;68.49;99385.50;1646031;84;21140;-53
2021/05/01 06:10:31;;;;;;;8.23;7.62;;;;;;;16.91;67.60;99386.89;1654313;84;22301;-52
2021/05/01 06:12:59;;;;;;;6.78;6.20;;;;;;;16.98;67.38;99393.56;1653551;86;21160;-53
2021/05/01 06:15:26;;;;;;;8.98;8.13;;;;;;;17.02;67.28;99392.80;1655637;85;21216;-52
2021/05/01 06:17:56;;;;;;;6.75;6.28;;;;;;;17.08;67.34;99389.61;1692620;82;21231;-52
2021/05/01 06:20:23;;;;;;;6.55;6.03;;;;;;;17.12;66.60;99381.56;1690486;82;21507;-52
2021/05/01 06:22:50;;;;;;;6.30;5.90;;;;;;;17.16;65.99;99384.91;1692452;82;22771;-52
2021/05/01 06:25:18;;;;;;;7.55;7.00;;;;;;;17.18;66.03;99382.41;1702049;82;21199;-53
2021/05/01 06:27:45;;;;;;;5.50;4.87;;;;;;;17.18;66.08;99390.56;1702829;82;21247;-53
2021/05/01 06:30:14;;;;;;;5.10;4.80;;;;;;;17.21;66.23;99393.05;1696925;82;21467;-53
2021/05/01 06:32:43;;;;;;;5.90;5.40;;;;;;;17.27;66.29;99393.91;1665583;84;21168;-52
2021/05/01 06:35:10;;;;;;;5.80;5.40;;;;;;;17.33;65.86;99394.79;1667561;84;21427;-52
2021/05/01 06:37:39;;;;;;;6.55;6.15;;;;;;;17.38;65.73;99400.70;1627024;85;21201;-52
2021/05/01 06:40:14;;;;;;;5.45;5.15;;;;;;;17.45;65.58;99405.64;1693918;82;21128;-53
2021/05/01 06:42:43;;;;;;;5.85;5.35;;;;;;;17.51;65.39;99404.66;1696033;82;21499;-53
2021/05/01 06:45:13;;;;;;;5.28;4.87;;;;;;;17.57;64.79;99404.64;1697685;82;21171;-53
2021/05/01 06:47:58;;;;;;;5.17;4.67;;;;;;;17.62;64.19;99411.95;1693410;82;21714;-53
2021/05/01 06:50:26;;;;;;;5.22;4.80;;;;;;;17.65;64.16;99403.05;1693821;82;21191;-53
2021/05/01 06:52:57;;;;;;;5.87;4.25;;;;;;;17.69;64.37;99407.76;1706650;81;21231;-53
2021/05/01 06:55:30;;;;;;;5.90;5.50;;;;;;;17.74;63.77;99409.59;1707118;82;21230;-53
2021/05/01 06:57:59;;;;;;;5.37;4.87;;;;;;;17.76;63.85;99411.70;1704543;82;21099;-53
2021/05/01 07:00:27;;;;;;;5.55;4.87;;;;;;;17.80;63.96;99413.16;1701322;82;21052;-53
2021/05/01 07:03:06;;;;;;;3.22;2.98;;;;;;;17.84;63.12;99413.78;1692058;82;21139;-53
2021/05/01 07:05:34;;;;;;;2.75;2.55;;;;;;;17.85;61.06;99410.94;1695847;82;21738;-53
2021/05/01 07:08:02;;;;;;;5.37;4.10;;;;;;;17.89;60.35;99415.11;1701959;82;21200;-53
2021/05/01 07:10:30;;;;;;;2.95;2.40;;;;;;;17.95;60.17;99406.95;1661586;84;21744;-53
2021/05/01 07:12:59;;;;;;;3.33;1.80;;;;;;;18.01;59.52;99403.70;1658824;84;22310;-53
2021/05/01 07:15:28;;;;;;;2.98;1.30;;;;;;;18.08;58.69;99405.77;1700899;82;21617;-53
2021/05/01 07:17:55;;;;;;;1.72;1.62;;;;;;;18.18;56.55;99414.03;1693994;82;21183;-53
2021/05/01 07:20:23;;;;;;;4.70;1.52;;;;;;;18.25;54.73;99404.34;1693920;82;21290;-52
2021/05/01 07:22:51;;;;;;;1.50;1.40;;;;;;;18.32;54.40;99403.31;1694421;82;21212;-52
2021/05/01 07:25:19;;;;;;;2.65;1.12;;;;;;;18.37;52.56;99407.89;1693570;82;22342;-53
2021/05/01 07:27:58;;;;;;;2.17;1.32;;;;;;;18.40;52.03;99413.92;1699371;82;21164;-53
2021/05/01 07:30:27;;;;;;;1.85;1.32;;;;;;;18.43;51.50;99404.13;1698632;82;21639;-52
2021/05/01 07:33:23;;;;;;;2.60;1.62;;;;;;;18.47;51.07;99403.35;1698064;82;21219;-52
2021/05/01 07:35:53;;;;;;;1.50;1.40;;;;;;;18.52;50.51;99399.75;1680484;82;21370;-52
2021/05/01 07:38:21;;;;;;;2.50;1.27;;;;;;;18.51;49.17;99393.93;1693448;82;21220;-52
2021/05/01 07:40:49;;;;;;;1.52;1.10;;;;;;;18.52;48.82;99396.53;1701508;82;21196;-51
2021/05/01 07:43:17;;;;;;;2.27;0.82;;;;;;;18.52;48.29;99400.61;1692897;82;21646;-52
2021/05/01 07:45:47;;;;;;;1.50;0.80;;;;;;;18.54;47.42;99401.85;1693017;82;21171;-52
2021/05/01 07:48:14;;;;;;;0.90;0.80;;;;;;;18.60;46.88;99400.48;1694042;82;21529;-55
2021/05/01 07:50:44;;;;;;;1.20;0.93;;;;;;;18.68;46.42;99394.72;1691808;82;21073;-52
2021/05/01 07:53:12;;;;;;;1.57;0.80;;;;;;;18.75;47.15;99404.59;1675997;82;21235;-52
2021/05/01 07:55:40;;;;;;;1.12;0.95;;;;;;;18.83;44.91;99406.14;1692095;82;21183;-52
2021/05/01 07:58:08;;;;;;;1.52;1.30;;;;;;;18.86;43.44;99413.57;1694082;82;21199;-52
2021/05/01 08:00:35;;;;;;;1.32;1.22;;;;;;;18.87;43.46;99412.58;1692646;82;21784;-52
2021/05/01 08:03:04;;;;;;;2.50;1.00;;;;;;;18.90;44.25;99413.65;1704568;82;21887;-52
2021/05/01 08:05:31;;;;;;;4.62;1.02;;;;;;;18.94;43.89;99403.84;1678053;82;21517;-52
2021/05/01 08:08:00;;;;;;;1.10;0.98;;;;;;;18.99;44.78;99407.02;1705562;82;21223;-53
2021/05/01 08:10:27;;;;;;;1.67;0.98;;;;;;;19.04;44.98;99406.13;1704195;82;21194;-52
2021/05/01 08:12:55;;;;;;;2.27;0.90;;;;;;;19.13;45.80;99405.32;1704856;82;21561;-52
2021/05/01 08:15:26;;;;;;;1.65;0.90;;;;;;;19.21;45.92;99400.91;1709079;82;21634;-52
2021/05/01 08:17:53;;;;;;;1.25;0.80;;;;;;;19.31;43.50;99409.64;1706556;82;21327;-52
2021/05/01 08:20:20;;;;;;;1.85;0.80;;;;;;;19.40;42.34;99410.14;1711980;82;21189;-53
2021/05/01 08:22:47;;;;;;;3.70;0.70;;;;;;;19.49;41.71;99410.22;1705941;82;21735;-53
2021/05/01 08:25:14;;;;;;;1.42;0.75;;;;;;;19.52;40.98;99417.27;1705995;82;21187;-53
2021/05/01 08:27:42;;;;;;;1.82;0.70;;;;;;;19.50;39.42;99425.59;1705191;82;21718;-53
2021/05/01 08:30:14;;;;;;;0.80;0.72;;;;;;;19.49;38.40;99432.05;1708937;82;21143;-52
2021/05/01 08:32:40;;;;;;;1.30;0.70;;;;;;;19.50;38.17;99430.19;1712068;82;21099;-52
2021/05/01 08:35:08;;;;;;;0.60;0.57;;;;;;;19.54;38.51;99427.56;1709293;82;21247;-52
2021/05/01 08:37:36;;;;;;;1.75;0.60;;;;;;;19.60;37.83;99423.77;1714333;82;21560;-53
2021/05/01 08:40:05;;;;;;;1.35;0.80;;;;;;;19.64;38.47;99425.23;1715543;82;21372;-53
2021/05/01 08:42:33;;;;;;;0.82;0.70;;;;;;;19.70;38.97;99421.57;1711776;82;21146;-52
2021/05/01 08:45:03;;;;;;;0.80;0.78;;;;;;;19.77;37.00;99425.47;1707457;82;21491;-52
2021/05/01 08:47:34;;;;;;;0.80;0.70;;;;;;;19.76;35.72;99420.50;1712958;82;21505;-52
2021/05/01 08:50:08;;;;;;;0.60;0.50;;;;;;;19.80;35.56;99419.23;1707888;82;21107;-52
2021/05/01 08:52:35;;;;;;;0.75;0.60;;;;;;;19.84;34.94;99416.56;1709115;82;22167;-53
2021/05/01 08:55:05;;;;;;;1.20;0.50;;;;;;;19.90;33.88;99420.63;1707473;82;21408;-52
2021/05/01 08:57:33;;;;;;;1.02;0.53;;;;;;;19.95;33.19;99427.88;1709528;82;21107;-53
2021/05/01 09:00:00;;;;;;;0.60;0.50;;;;;;;19.99;31.84;99430.67;1706403;82;21088;-52
2021/05/01 09:02:28;;;;;;;0.80;0.60;;;;;;;20.00;32.16;99430.54;1704015;82;21103;-52
2021/05/01 09:04:56;;;;;;;1.55;0.70;;;;;;;20.05;31.94;99431.50;1708209;82;21447;-53
2021/05/01 09:07:25;;;;;;;1.10;0.60;;;;;;;20.08;31.76;99430.33;1712267;82;21009;-53
2021/05/01 09:09:54;;;;;;;0.65;0.53;;;;;;;20.11;31.68;99427.33;1686856;82;21646;-52
2021/05/01 09:12:47;;;;;;;0.65;0.50;;;;;;;20.12;31.50;99423.09;1708519;82;21210;-53
2021/05/01 09:15:24;;;;;;;0.70;0.70;;;;;;;20.14;32.68;99422.45;1708022;82;21474;-52
2021/05/01 09:18:00;;;;;;;0.70;0.60;;;;;;;20.20;33.13;99423.23;1706628;82;21211;-53
2021/05/01 09:20:27;;;;;;;1.75;0.78;;;;;;;20.25;33.77;99413.23;1708004;82;21223;-53
2021/05/01 09:23:01;;;;;;;0.82;0.57;;;;;;;20.31;33.11;99415.41;1708902;82;21190;-52
2021/05/01 09:25:32;;;;;;;0.60;0.60;;;;;;;20.32;32.19;99412.54;1713544;82;21214;-52
2021/05/01 09:28:10;;;;;;;0.80;0.50;;;;;;;20.35;32.61;99419.59;1709223;82;21191;-51
2021/05/01 09:30:38;;;;;;;0.68;0.60;;;;;;;20.38;32.58;99417.95;1715061;82;21209;-53
2021/05/01 09:33:32;;;;;;;0.98;0.70;;;;;;;20.44;33.13;99412.41;1706258;82;21198;-52
2021/05/01 09:36:08;;;;;;;1.00;0.70;;;;;;;20.45;34.38;99408.67;1708275;82;21191;-52
2021/05/01 09:38:39;;;;;;;1.87;0.70;;;;;;;20.47;34.87;99410.26;1714157;82;21175;-52
2021/05/01 09:41:13;;;;;;;1.80;0.70;;;;;;;20.53;36.11;99414.27;1710837;82;21543;-52
2021/05/01 09:44:04;;;;;;;0.60;0.60;;;;;;;20.63;36.35;99413.77;1707064;82;21383;-52
2021/05/01 09:46:43;;;;;;;0.65;0.60;;;;;;;20.70;36.52;99410.80;1711131;82;21203;-52
2021/05/01 09:49:23;;;;;;;0.90;0.60;;;;;;;20.78;35.80;99411.80;1712405;82;21629;-52
2021/05/01 09:51:58;;;;;;;0.70;0.60;;;;;;;20.82;34.88;99404.17;1709236;82;21167;-53
2021/05/01 09:54:35;;;;;;;2.87;0.60;;;;;;;20.84;35.09;99403.49;1709958;82;21194;-53
2021/05/01 09:57:07;;;;;;;1.32;0.80;;;;;;;20.87;35.02;99403.21;1717310;82;21692;-53
2021/05/01 09:59:41;;;;;;;0.70;0.62;;;;;;;20.94;34.57;99404.34;1708599;82;22024;-52
2021/05/01 10:02:13;;;;;;;1.20;0.60;;;;;;;20.93;33.75;99408.08;1700371;82;21200;-53
2021/05/01 10:04:41;;;;;;;1.10;0.70;;;;;;;20.91;33.68;99399.69;1692764;82;21224;-53
2021/05/01 10:07:11;;;;;;;1.15;1.05;;;;;;;20.94;34.07;99401.60;1695806;82;21623;-52
2021/05/01 10:09:42;;;;;;;1.35;1.00;;;;;;;21.01;34.28;99405.47;1694840;82;21291;-52
2021/05/01 10:12:14;;;;;;;2.75;0.80;;;;;;;21.05;32.41;99395.09;1697637;82;22516;-53
2021/05/01 10:14:50;;;;;;;0.95;0.70;;;;;;;21.04;32.04;99397.48;1698572;82;21491;-52
2021/05/01 10:17:24;;;;;;;;;;;;;;;21.00;30.69;99394.70;1698043;82;21195;-52
2021/05/01 10:20:00;;;;;;;0.60;0.60;;;;;;;20.95;31.93;99399.73;1695575;82;20296;-52
2021/05/01 10:22:37;;;;;;;0.90;0.62;;;;;;;20.95;31.93;99390.16;1704829;82;21230;-52
2021/05/01 10:25:25;;;;;;;0.70;0.50;;;;;;;20.98;31.98;99389.37;1702287;82;21218;-53
2021/05/01 10:27:57;;;;;;;0.98;0.60;;;;;;;21.01;31.06;99389.05;1693701;82;21242;-52
2021/05/01 10:30:35;;;;;;;0.75;0.50;;;;;;;21.04;32.36;99397.48;1691291;82;21733;-52
2021/05/01 10:33:26;;;;;;;0.50;0.50;;;;;;;21.10;32.57;99402.34;1690204;82;21169;-53
2021/05/01 10:36:15;;;;;;;1.30;0.60;;;;;;;21.18;32.47;99400.30;1693404;82;22123;-53
2021/05/01 10:38:42;;;;;;;1.82;0.80;;;;;;;21.25;31.52;99402.28;1696137;82;21163;-53
2021/05/01 10:41:17;;;;;;;0.95;0.70;;;;;;;21.24;31.06;99406.53;1695247;82;21697;-52
2021/05/01 10:43:49;;;;;;;0.80;0.50;;;;;;;21.22;30.65;99392.98;1693468;82;21682;-53
2021/05/01 10:46:28;;;;;;;1.47;0.80;;;;;;;21.17;30.10;99388.48;1694936;82;22051;-52
2021/05/01 10:48:59;;;;;;;0.98;0.50;;;;;;;21.10;31.34;99395.00;1694866;82;21382;-53
2021/05/01 10:51:29;;;;;;;1.57;0.57;;;;;;;21.12;31.79;99392.13;1691690;82;21239;-53
2021/05/01 10:54:14;;;;;;;0.60;0.50;;;;;;;21.13;30.81;99394.71;1696712;82;21604;-53
2021/05/01 10:56:53;;;;;;;1.12;0.60;;;;;;;21.10;31.76;99395.50;1701852;82;21188;-53
2021/05/01 10:59:25;;;;;;;0.53;0.50;;;;;;;21.11;31.59;99393.99;1701425;82;21148;-53
2021/05/01 11:01:54;;;;;;;5.45;5.10;;;;;;;21.12;31.68;99391.62;1697189;82;22142;-53
2021/05/01 11:04:25;;;;;;;1.60;1.15;;;;;;;21.15;31.89;99380.38;1702556;82;21188;-53
2021/05/01 11:07:06;;;;;;;0.90;0.72;;;;;;;21.15;31.79;99384.98;1695759;82;21582;-53
2021/05/01 11:09:50;;;;;;;1.65;0.70;;;;;;;21.12;31.01;99383.41;1694816;82;21186;-53
2021/05/01 11:12:20;;;;;;;0.68;0.50;;;;;;;21.10;31.85;99384.05;1698751;82;21683;-52
2021/05/01 11:14:54;;;;;;;0.98;0.55;;;;;;;21.12;32.94;99381.17;1698498;82;21252;-53
2021/05/01 11:17:34;;;;;;;1.10;0.60;;;;;;;21.18;33.11;99387.44;1693434;82;21310;-52
2021/05/01 11:20:07;;;;;;;1.20;0.70;;;;;;;21.26;33.06;99387.58;1691922;82;21057;-52
2021/05/01 11:22:50;;;;;;;1.45;0.80;;;;;;;21.33;33.03;99383.73;1692008;82;21216;-53
2021/05/01 11:25:22;;;;;;;0.80;0.70;;;;;;;21.38;32.93;99378.65;1708263;81;21183;-52
2021/05/01 11:27:52;;;;;;;1.80;0.65;;;;;;;21.38;32.09;99371.80;1709897;81;21554;-52
2021/05/01 11:30:25;;;;;;;1.80;0.70;;;;;;;21.38;33.00;99375.41;1712237;81;21573;-52
2021/05/01 11:32:53;;;;;;;0.88;0.70;;;;;;;21.42;33.58;99374.10;1706723;81;21146;-53
2021/05/01 11:35:25;;;;;;;0.88;0.80;;;;;;;21.49;33.63;99371.61;1708103;81;21143;-53
2021/05/01 11:38:01;;;;;;;0.70;0.70;;;;;;;21.54;33.13;99363.79;1714392;81;21123;-53
2021/05/01 11:40:30;;;;;;;0.85;0.60;;;;;;;21.58;32.22;99360.25;1681003;83;22360;-52
2021/05/01 11:42:58;;;;;;;1.27;0.50;;;;;;;21.57;32.37;99357.16;1724139;81;21162;-53
2021/05/01 11:45:46;;;;;;;0.50;0.50;;;;;;;21.56;32.68;99359.03;1727073;81;21102;-53
2021/05/01 11:48:27;;;;;;;0.60;0.50;;;;;;;21.57;32.43;99358.52;1726863;81;21110;-53
2021/05/01 11:50:54;;;;;;;0.53;0.50;;;;;;;21.61;32.20;99367.63;1696033;81;21138;-52
2021/05/01 11:53:47;;;;;;;0.85;0.60;;;;;;;21.65;32.15;99361.36;1700488;82;21385;-53
2021/05/01 11:56:44;;;;;;;0.53;0.50;;;;;;;21.71;32.36;99362.10;1707166;82;21155;-54